Time;durP1;ratioP1;P1;durP2;ratioP2;P2;SDS_P1;SDS_P2;PMS_P1;PMS_P2;Temp;Humidity;BMP_temperature;BMP_pressure;BME280_temperature;BME280_humidity;BME280_pressure;Samples;Min_cycle;Max_cycle;Signal;HPM_P1;HPM_P2
2020/12/10 00:02:17;;;;;;;28.70;14.77;;;;;;;;;;5035294;28;20180;-78
2020/12/10 00:04:42;;;;;;;29.43;16.10;;;;;;;;;;5035434;28;20570;-78
2020/12/10 00:07:08;;;;;;;32.00;18.10;;;;;;;;;;5035244;28;20173;-78
2020/12/10 00:09:33;;;;;;;32.77;18.37;;;;;;;;;;5035187;28;20165;-78
2020/12/10 00:12:02;;;;;;;25.47;13.33;;;;;;;;;;5035113;28;20199;-78
2020/12/10 00:14:28;;;;;;;34.47;20.07;;;;;;;;;;5035335;28;20235;-78
2020/12/10 00:16:53;;;;;;;37.33;22.03;;;;;;;;;;5033757;28;20181;-78
2020/12/10 00:19:18;;;;;;;26.80;14.53;;;;;;;;;;5035281;28;20187;-78
2020/12/10 00:21:44;;;;;;;25.83;14.00;;;;;;;;;;5035228;28;20165;-78
2020/12/10 00:24:09;;;;;;;31.00;17.93;;;;;;;;;;5033559;28;20667;-78
2020/12/10 00:26:34;;;;;;;27.10;15.07;;;;;;;;;;5033557;28;20191;-78
2020/12/10 00:29:00;;;;;;;28.90;13.87;;;;;;;;;;5034826;28;20639;-78
2020/12/10 00:31:25;;;;;;;26.03;14.07;;;;;;;;;;5034419;28;20169;-78
2020/12/10 00:33:50;;;;;;;28.00;15.97;;;;;;;;;;5034967;28;20178;-78
2020/12/10 00:36:16;;;;;;;28.63;17.40;;;;;;;;;;5034957;28;20263;-78
2020/12/10 00:38:41;;;;;;;28.13;16.60;;;;;;;;;;5034887;28;20226;-78
2020/12/10 00:41:07;;;;;;;27.03;16.37;;;;;;;;;;5035105;28;20200;-78
2020/12/10 00:43:33;;;;;;;28.37;16.47;;;;;;;;;;5033775;28;20516;-78
2020/12/10 00:46:03;;;;;;;25.50;15.90;;;;;;;;;;5034436;28;20176;-78
2020/12/10 00:48:28;;;;;;;28.63;16.43;;;;;;;;;;5033754;28;20176;-78
2020/12/10 00:50:53;;;;;;;24.77;15.90;;;;;;;;;;5034395;28;20513;-78
2020/12/10 00:53:19;;;;;;;22.97;13.57;;;;;;;;;;5034686;28;20180;-78
2020/12/10 00:55:44;;;;;;;28.13;17.07;;;;;;;;;;5034045;28;20165;-78
2020/12/10 00:58:09;;;;;;;28.53;16.97;;;;;;;;;;5032772;28;20293;-78
2020/12/10 01:00:35;;;;;;;28.20;16.60;;;;;;;;;;5034557;28;20204;-78
2020/12/10 01:03:00;;;;;;;25.67;15.63;;;;;;;;;;5034738;28;20622;-78
2020/12/10 01:05:25;;;;;;;23.93;13.77;;;;;;;;;;5034400;28;20226;-78
2020/12/10 01:07:51;;;;;;;26.03;14.80;;;;;;;;;;5032904;28;20185;-78
2020/12/10 01:10:16;;;;;;;27.87;16.37;;;;;;;;;;5034245;28;20164;-78
2020/12/10 01:12:42;;;;;;;28.50;16.47;;;;;;;;;;5033037;28;20691;-78
2020/12/10 01:15:07;;;;;;;22.97;15.07;;;;;;;;;;5034577;28;20180;-78
2020/12/10 01:17:33;;;;;;;23.77;14.63;;;;;;;;;;5032778;28;20267;-78
2020/12/10 01:19:58;;;;;;;28.73;17.13;;;;;;;;;;5032650;28;20267;-78
2020/12/10 01:22:23;;;;;;;29.37;15.80;;;;;;;;;;5032700;28;20176;-78
2020/12/10 01:24:49;;;;;;;29.57;16.90;;;;;;;;;;5033407;28;20254;-78
2020/12/10 01:27:14;;;;;;;27.80;16.70;;;;;;;;;;5032593;28;20343;-78
2020/12/10 01:29:39;;;;;;;29.47;16.97;;;;;;;;;;5033741;28;20287;-78
2020/12/10 01:32:05;;;;;;;32.20;19.07;;;;;;;;;;5033892;28;20294;-78
2020/12/10 01:34:30;;;;;;;31.73;18.80;;;;;;;;;;5034515;28;20176;-78
2020/12/10 01:36:55;;;;;;;30.47;17.23;;;;;;;;;;5032715;28;20535;-78
2020/12/10 01:39:21;;;;;;;32.60;18.40;;;;;;;;;;5032569;28;20200;-78
2020/12/10 01:41:46;;;;;;;32.47;20.80;;;;;;;;;;5034356;28;20168;-78
2020/12/10 01:44:12;;;;;;;41.13;23.23;;;;;;;;;;5033782;28;20645;-78
2020/12/10 01:46:38;;;;;;;31.40;17.60;;;;;;;;;;5033833;28;20577;-78
2020/12/10 01:49:04;;;;;;;27.93;15.50;;;;;;;;;;5032400;28;20185;-78
2020/12/10 01:51:30;;;;;;;33.83;20.23;;;;;;;;;;5035483;28;20184;-79
2020/12/10 01:53:56;;;;;;;41.13;21.43;;;;;;;;;;5036605;28;20197;-78
2020/12/10 01:56:21;;;;;;;33.80;19.43;;;;;;;;;;5037699;28;20219;-78
2020/12/10 01:58:46;;;;;;;29.17;16.47;;;;;;;;;;5036281;28;20638;-78
2020/12/10 02:01:12;;;;;;;27.57;15.77;;;;;;;;;;5037886;28;20179;-78
2020/12/10 02:03:37;;;;;;;26.03;15.47;;;;;;;;;;5037501;28;20177;-78
2020/12/10 02:06:03;;;;;;;26.13;15.57;;;;;;;;;;5037458;28;20179;-78
2020/12/10 02:08:28;;;;;;;20.80;13.00;;;;;;;;;;5036724;28;20230;-78
2020/12/10 02:10:53;;;;;;;29.10;15.70;;;;;;;;;;5036412;28;20255;-78
2020/12/10 02:13:19;;;;;;;28.00;15.40;;;;;;;;;;5037830;28;20173;-78
2020/12/10 02:15:48;;;;;;;24.40;14.90;;;;;;;;;;5035951;28;20176;-78
2020/12/10 02:18:13;;;;;;;32.27;17.63;;;;;;;;;;5037240;28;20191;-79
2020/12/10 02:20:39;;;;;;;19.37;10.53;;;;;;;;;;5036008;28;20624;-79
2020/12/10 02:23:08;;;;;;;22.77;13.67;;;;;;;;;;5037223;28;20177;-78
2020/12/10 02:25:35;;;;;;;28.77;15.43;;;;;;;;;;5036680;28;20200;-79
2020/12/10 02:28:02;;;;;;;26.57;16.63;;;;;;;;;;5037346;28;20259;-78
2020/12/10 02:30:28;;;;;;;24.90;15.63;;;;;;;;;;5036861;28;20295;-78
2020/12/10 02:33:00;;;;;;;29.10;16.67;;;;;;;;;;5037010;28;20194;-78
2020/12/10 02:35:26;;;;;;;25.00;15.40;;;;;;;;;;5035661;28;20185;-78
2020/12/10 02:37:56;;;;;;;28.80;15.07;;;;;;;;;;5036569;28;20169;-78
2020/12/10 02:40:21;;;;;;;28.97;16.90;;;;;;;;;;5037083;28;20229;-78
2020/12/10 02:42:47;;;;;;;23.90;14.33;;;;;;;;;;5036330;28;20561;-78
2020/12/10 02:45:12;;;;;;;24.03;14.10;;;;;;;;;;5036811;28;20705;-78
2020/12/10 02:47:37;;;;;;;26.30;17.10;;;;;;;;;;5036989;28;20180;-78
2020/12/10 02:50:03;;;;;;;26.13;15.30;;;;;;;;;;5036437;28;20226;-78
2020/12/10 02:52:28;;;;;;;26.23;17.33;;;;;;;;;;5036636;28;20226;-78
2020/12/10 02:54:53;;;;;;;28.83;16.13;;;;;;;;;;5035316;28;20184;-79
2020/12/10 02:57:19;;;;;;;25.17;15.27;;;;;;;;;;5035249;28;20256;-78
2020/12/10 02:59:44;;;;;;;25.20;14.77;;;;;;;;;;5036284;28;20311;-78
2020/12/10 03:02:10;;;;;;;28.27;15.70;;;;;;;;;;5035005;28;20197;-78
2020/12/10 03:04:35;;;;;;;28.70;16.27;;;;;;;;;;5036601;28;20547;-78
2020/12/10 03:07:00;;;;;;;24.97;15.33;;;;;;;;;;5036112;28;20505;-78
2020/12/10 03:09:25;;;;;;;24.07;13.87;;;;;;;;;;5036391;28;20204;-78
2020/12/10 03:11:51;;;;;;;26.23;14.50;;;;;;;;;;5036590;28;20164;-78
2020/12/10 03:14:16;;;;;;;29.73;15.80;;;;;;;;;;5035950;28;20180;-78
2020/12/10 03:16:41;;;;;;;32.87;16.77;;;;;;;;;;5035495;28;20271;-78
2020/12/10 03:19:07;;;;;;;33.67;16.43;;;;;;;;;;5036152;28;20611;-78
2020/12/10 03:21:32;;;;;;;27.67;15.60;;;;;;;;;;5036167;28;20516;-78
2020/12/10 03:23:58;;;;;;;31.67;17.07;;;;;;;;;;5036186;28;20201;-78
2020/12/10 03:26:23;;;;;;;36.60;17.87;;;;;;;;;;5035062;28;20185;-78
2020/12/10 03:28:48;;;;;;;31.97;16.47;;;;;;;;;;5035727;28;20604;-78
2020/12/10 03:31:14;;;;;;;33.20;17.60;;;;;;;;;;5036537;28;20219;-78
2020/12/10 03:33:39;;;;;;;30.80;17.53;;;;;;;;;;5035480;28;20615;-78
2020/12/10 03:36:04;;;;;;;28.93;15.63;;;;;;;;;;5035238;28;20188;-78
2020/12/10 03:38:30;;;;;;;30.13;17.00;;;;;;;;;;5035516;28;20176;-78
2020/12/10 03:40:55;;;;;;;28.57;13.60;;;;;;;;;;5035990;28;20188;-78
2020/12/10 03:43:20;;;;;;;25.70;14.63;;;;;;;;;;5034456;28;20740;-79
2020/12/10 03:45:46;;;;;;;31.50;17.23;;;;;;;;;;5035575;28;20204;-78
2020/12/10 03:48:11;;;;;;;33.93;17.83;;;;;;;;;;5034638;28;20263;-78
2020/12/10 03:50:36;;;;;;;33.27;18.30;;;;;;;;;;5035568;28;20294;-78
2020/12/10 03:53:02;;;;;;;31.90;17.57;;;;;;;;;;5035830;28;20649;-78
2020/12/10 03:55:27;;;;;;;29.70;16.57;;;;;;;;;;5036042;28;20172;-78
2020/12/10 03:57:52;;;;;;;28.30;15.10;;;;;;;;;;5033930;28;20438;-79
2020/12/10 04:00:20;;;;;;;31.63;16.97;;;;;;;;;;5035759;28;20211;-78
2020/12/10 04:02:45;;;;;;;35.00;17.83;;;;;;;;;;5035305;28;20623;-78
2020/12/10 04:05:11;;;;;;;22.77;12.33;;;;;;;;;;5035009;28;20202;-78
2020/12/10 04:07:36;;;;;;;34.80;18.33;;;;;;;;;;5035096;28;20183;-78
2020/12/10 04:10:02;;;;;;;33.20;17.77;;;;;;;;;;5035230;28;20259;-78
2020/12/10 04:12:27;;;;;;;30.27;13.53;;;;;;;;;;5034749;28;20165;-79
2020/12/10 04:14:53;;;;;;;36.83;18.80;;;;;;;;;;5034852;28;20529;-79
2020/12/10 04:17:18;;;;;;;23.93;12.87;;;;;;;;;;5035200;28;20299;-78
2020/12/10 04:19:43;;;;;;;36.90;19.33;;;;;;;;;;5033740;28;20193;-78
2020/12/10 04:22:09;;;;;;;36.60;19.50;;;;;;;;;;5034983;28;20192;-78
2020/12/10 04:24:34;;;;;;;35.50;18.33;;;;;;;;;;5034785;28;20192;-78
2020/12/10 04:26:59;;;;;;;30.73;17.17;;;;;;;;;;5034952;28;20638;-78
2020/12/10 04:29:25;;;;;;;21.60;12.87;;;;;;;;;;5033471;28;20200;-78
2020/12/10 04:31:50;;;;;;;38.93;20.17;;;;;;;;;;5034742;28;20161;-78
2020/12/10 04:34:16;;;;;;;37.17;21.27;;;;;;;;;;5034459;28;20207;-78
2020/12/10 04:36:41;;;;;;;42.37;21.10;;;;;;;;;;5035038;28;20256;-78
2020/12/10 04:39:07;;;;;;;34.10;18.90;;;;;;;;;;5033643;28;20168;-79
2020/12/10 04:41:36;;;;;;;37.23;20.87;;;;;;;;;;5034321;28;20551;-78
2020/12/10 04:44:01;;;;;;;36.80;20.67;;;;;;;;;;5017015;28;20559;-79
2020/12/10 04:46:28;;;;;;;39.43;19.73;;;;;;;;;;5033302;28;20260;-78
2020/12/10 04:48:54;;;;;;;45.63;23.67;;;;;;;;;;5033148;28;20177;-79
2020/12/10 04:51:22;;;;;;;42.00;21.00;;;;;;;;;;5034434;28;20252;-79
2020/12/10 04:53:49;;;;;;;36.47;20.47;;;;;;;;;;5034365;28;20184;-79
2020/12/10 04:56:15;;;;;;;40.87;22.13;;;;;;;;;;5034372;28;20180;-79
2020/12/10 04:58:41;;;;;;;38.73;20.93;;;;;;;;;;5034689;28;20224;-79
2020/12/10 05:01:06;;;;;;;33.43;17.53;;;;;;;;;;5033202;28;20180;-78
2020/12/10 05:03:32;;;;;;;42.60;24.40;;;;;;;;;;5034118;28;20281;-79
2020/12/10 05:06:11;;;;;;;36.03;19.43;;;;;;;;;;5032935;28;20303;-78
2020/12/10 05:08:36;;;;;;;35.87;17.73;;;;;;;;;;5032930;28;20262;-78
2020/12/10 05:11:01;;;;;;;40.33;21.57;;;;;;;;;;5032908;28;20208;-78
2020/12/10 05:13:27;;;;;;;38.43;21.50;;;;;;;;;;5034376;28;20176;-78
2020/12/10 05:15:52;;;;;;;38.47;21.93;;;;;;;;;;5034119;28;20168;-78
2020/12/10 05:18:18;;;;;;;36.10;19.57;;;;;;;;;;5032763;28;20208;-78
2020/12/10 05:20:44;;;;;;;45.53;24.80;;;;;;;;;;5033959;28;20222;-78
2020/12/10 05:23:10;;;;;;;37.97;21.77;;;;;;;;;;5033971;28;20180;-78
2020/12/10 05:25:44;;;;;;;37.67;20.33;;;;;;;;;;5033012;28;20647;-78
2020/12/10 05:28:11;;;;;;;41.17;21.53;;;;;;;;;;5034160;28;20180;-79
2020/12/10 05:30:37;;;;;;;24.53;11.90;;;;;;;;;;5033126;28;20188;-78
2020/12/10 05:33:09;;;;;;;35.93;19.43;;;;;;;;;;5032574;28;20185;-78
2020/12/10 05:35:34;;;;;;;92.23;41.07;;;;;;;;;;5033820;28;20176;-78
2020/12/10 05:38:07;;;;;;;45.07;21.40;;;;;;;;;;5033796;28;20639;-78
2020/12/10 05:40:32;;;;;;;44.07;22.70;;;;;;;;;;5033777;28;20500;-78
2020/12/10 05:42:58;;;;;;;30.10;16.73;;;;;;;;;;5033534;28;20176;-78
2020/12/10 05:45:23;;;;;;;36.30;18.53;;;;;;;;;;5032435;28;20212;-78
2020/12/10 05:47:53;;;;;;;31.23;16.97;;;;;;;;;;5032454;28;20192;-78
2020/12/10 05:50:27;;;;;;;44.03;24.93;;;;;;;;;;5032485;28;20271;-78
2020/12/10 05:52:55;;;;;;;63.43;28.37;;;;;;;;;;5033779;28;20164;-79
2020/12/10 05:55:20;;;;;;;138.57;55.37;;;;;;;;;;5033484;28;20216;-78
2020/12/10 05:57:46;;;;;;;47.70;26.10;;;;;;;;;;5033652;28;20176;-78
2020/12/10 06:00:11;;;;;;;42.53;20.30;;;;;;;;;;5033571;28;20161;-79
2020/12/10 06:02:40;;;;;;;35.00;20.00;;;;;;;;;;5033766;28;20172;-78
2020/12/10 06:05:05;;;;;;;36.43;19.73;;;;;;;;;;5033722;28;20298;-78
2020/12/10 06:07:30;;;;;;;42.57;22.50;;;;;;;;;;5032555;28;20264;-78
2020/12/10 06:09:56;;;;;;;39.20;21.40;;;;;;;;;;5032265;28;20681;-78
2020/12/10 06:12:23;;;;;;;134.30;56.37;;;;;;;;;;5033124;28;20255;-78
2020/12/10 06:14:52;;;;;;;65.23;33.57;;;;;;;;;;5032173;28;20212;-78
2020/12/10 06:17:18;;;;;;;43.90;25.00;;;;;;;;;;5032183;28;20219;-78
2020/12/10 06:19:43;;;;;;;38.97;22.00;;;;;;;;;;5033455;28;20512;-78
2020/12/10 06:22:28;;;;;;;30.07;15.77;;;;;;;;;;5033350;28;20200;-78
2020/12/10 06:24:58;;;;;;;29.10;15.20;;;;;;;;;;5033517;28;20200;-78
2020/12/10 06:27:24;;;;;;;34.83;19.83;;;;;;;;;;5033340;28;20203;-78
2020/12/10 06:29:49;;;;;;;31.10;16.57;;;;;;;;;;5033200;28;20215;-78
2020/12/10 06:32:16;;;;;;;26.53;15.90;;;;;;;;;;5033318;28;20177;-78
2020/12/10 06:34:44;;;;;;;28.17;16.50;;;;;;;;;;5033314;28;20700;-78
2020/12/10 06:37:13;;;;;;;26.00;13.77;;;;;;;;;;5035783;28;20251;-78
2020/12/10 06:39:39;;;;;;;32.47;19.10;;;;;;;;;;5035342;28;20181;-78
2020/12/10 06:42:04;;;;;;;34.73;19.33;;;;;;;;;;5035547;28;20279;-78
2020/12/10 06:44:36;;;;;;;38.90;22.40;;;;;;;;;;5036815;28;20215;-78
2020/12/10 06:47:02;;;;;;;39.00;22.60;;;;;;;;;;5035536;28;20275;-78
2020/12/10 06:49:29;;;;;;;48.90;23.90;;;;;;;;;;5037011;28;20608;-78
2020/12/10 06:52:07;;;;;;;39.30;23.50;;;;;;;;;;5036957;28;20655;-78
2020/12/10 06:54:32;;;;;;;85.73;33.77;;;;;;;;;;5037500;28;20187;-78
2020/12/10 06:57:07;;;;;;;40.67;19.77;;;;;;;;;;5036868;28;20180;-78
2020/12/10 06:59:40;;;;;;;47.67;25.93;;;;;;;;;;5036700;28;20223;-79
2020/12/10 07:02:09;;;;;;;30.03;16.37;;;;;;;;;;5035025;28;20181;-78
2020/12/10 07:04:45;;;;;;;31.10;17.03;;;;;;;;;;5036556;28;20663;-78
2020/12/10 07:07:12;;;;;;;32.53;19.80;;;;;;;;;;5036178;28;20180;-78
2020/12/10 07:09:55;;;;;;;44.27;24.23;;;;;;;;;;5036647;28;20192;-78
2020/12/10 07:12:21;;;;;;;48.77;24.33;;;;;;;;;;5036294;28;20164;-79
2020/12/10 07:14:47;;;;;;;48.13;24.80;;;;;;;;;;5035021;28;20177;-79
2020/12/10 07:17:12;;;;;;;40.80;21.50;;;;;;;;;;5036248;28;20169;-79
2020/12/10 07:19:38;;;;;;;39.13;21.77;;;;;;;;;;5036171;28;20173;-78
2020/12/10 07:22:03;;;;;;;30.63;17.10;;;;;;;;;;5034782;28;20531;-78
2020/12/10 07:24:28;;;;;;;35.83;20.63;;;;;;;;;;5035672;28;20548;-78
2020/12/10 07:26:54;;;;;;;31.67;18.17;;;;;;;;;;5035942;28;20181;-78
2020/12/10 07:29:20;;;;;;;33.37;19.83;;;;;;;;;;5036137;28;20645;-78
2020/12/10 07:31:45;;;;;;;33.70;19.17;;;;;;;;;;5035098;28;20184;-78
2020/12/10 07:34:13;;;;;;;43.63;23.10;;;;;;;;;;5035844;28;20263;-78
2020/12/10 07:36:45;;;;;;;48.10;26.87;;;;;;;;;;5035830;28;20231;-78
2020/12/10 07:39:12;;;;;;;84.10;38.40;;;;;;;;;;5036044;28;20172;-78
2020/12/10 07:41:38;;;;;;;34.93;19.17;;;;;;;;;;5035406;28;20661;-78
2020/12/10 07:44:03;;;;;;;32.77;21.77;;;;;;;;;;5024335;28;20240;-79
2020/12/10 07:46:36;;;;;;;37.23;23.50;;;;;;;;;;5035573;28;20575;-79
2020/12/10 07:49:01;;;;;;;39.53;23.23;;;;;;;;;;5034740;28;20177;-79
2020/12/10 07:51:26;;;;;;;42.70;25.43;;;;;;;;;;5035770;28;20492;-78
2020/12/10 07:53:59;;;;;;;39.97;25.03;;;;;;;;;;5035774;28;20600;-78
2020/12/10 07:56:26;;;;;;;43.07;24.40;;;;;;;;;;5036070;28;20177;-78
2020/12/10 07:58:54;;;;;;;26.77;16.37;;;;;;;;;;5033777;28;20236;-79
2020/12/10 08:01:20;;;;;;;45.00;26.77;;;;;;;;;;5035228;28;20180;-79
2020/12/10 08:03:45;;;;;;;64.73;37.60;;;;;;;;;;5032707;28;20169;-78
2020/12/10 08:06:12;;;;;;;36.13;21.67;;;;;;;;;;5034742;28;20192;-78
2020/12/10 08:08:42;;;;;;;34.50;21.30;;;;;;;;;;5034778;28;20535;-78
2020/12/10 08:11:09;;;;;;;36.93;21.87;;;;;;;;;;5034770;28;20171;-78
2020/12/10 08:13:34;;;;;;;33.07;20.47;;;;;;;;;;5034790;28;20683;-78
2020/12/10 08:16:08;;;;;;;34.63;20.37;;;;;;;;;;5034749;28;20246;-78
2020/12/10 08:18:33;;;;;;;26.23;13.17;;;;;;;;;;5034540;28;20291;-78
2020/12/10 08:21:06;;;;;;;53.43;30.30;;;;;;;;;;5034995;28;20628;-78
2020/12/10 08:23:41;;;;;;;30.47;17.67;;;;;;;;;;5034345;28;20240;-78
2020/12/10 08:26:11;;;;;;;97.27;48.53;;;;;;;;;;5035162;28;20259;-78
2020/12/10 08:28:50;;;;;;;72.27;40.83;;;;;;;;;;5034313;28;20223;-78
2020/12/10 08:31:20;;;;;;;48.13;31.37;;;;;;;;;;5035417;28;20164;-78
2020/12/10 08:33:46;;;;;;;39.97;23.70;;;;;;;;;;5033243;28;20274;-78
2020/12/10 08:36:21;;;;;;;43.20;27.73;;;;;;;;;;5034915;28;20192;-79
2020/12/10 08:38:51;;;;;;;32.63;20.83;;;;;;;;;;5033358;28;20187;-79
2020/12/10 08:41:22;;;;;;;30.03;15.97;;;;;;;;;;5034566;28;20227;-78
2020/12/10 08:43:57;;;;;;;39.03;22.57;;;;;;;;;;5034676;28;20476;-78
2020/12/10 08:46:23;;;;;;;39.17;21.70;;;;;;;;;;5023994;28;20185;-78
2020/12/10 08:48:48;;;;;;;36.40;22.07;;;;;;;;;;5016290;28;20615;-78
2020/12/10 08:51:14;;;;;;;78.30;37.13;;;;;;;;;;5023520;28;20200;-78
2020/12/10 08:53:46;;;;;;;37.73;21.63;;;;;;;;;;5015026;28;20176;-78
2020/12/10 08:56:21;;;;;;;33.37;19.57;;;;;;;;;;5014299;28;20174;-78
2020/12/10 08:58:47;;;;;;;33.40;17.50;;;;;;;;;;5014246;28;20605;-78
2020/12/10 09:01:13;;;;;;;33.87;20.43;;;;;;;;;;5014190;28;20197;-78
2020/12/10 09:03:38;;;;;;;27.10;17.60;;;;;;;;;;5014337;28;20262;-78
2020/12/10 09:06:03;;;;;;;38.33;19.70;;;;;;;;;;5014080;28;20658;-78
2020/12/10 09:08:31;;;;;;;38.90;21.43;;;;;;;;;;5029579;28;20524;-78
2020/12/10 09:10:56;;;;;;;36.63;20.77;;;;;;;;;;5033043;28;20188;-78
2020/12/10 09:13:24;;;;;;;44.87;24.20;;;;;;;;;;5033724;28;20175;-78
2020/12/10 09:15:49;;;;;;;43.97;23.67;;;;;;;;;;5032562;28;20176;-78
2020/12/10 09:18:14;;;;;;;53.13;28.83;;;;;;;;;;5034484;28;20260;-78
2020/12/10 09:20:41;;;;;;;45.17;26.67;;;;;;;;;;5033902;28;20603;-78
2020/12/10 09:23:06;;;;;;;77.67;39.33;;;;;;;;;;5033858;28;20252;-78
2020/12/10 09:25:31;;;;;;;50.13;27.77;;;;;;;;;;5033885;28;20304;-78
2020/12/10 09:27:57;;;;;;;45.33;24.40;;;;;;;;;;5033885;28;20172;-79
2020/12/10 09:30:23;;;;;;;70.50;41.13;;;;;;;;;;5032594;28;20271;-79
2020/12/10 09:32:48;;;;;;;50.27;29.07;;;;;;;;;;5033451;28;20255;-79
2020/12/10 09:35:15;;;;;;;57.60;33.77;;;;;;;;;;5033448;28;20184;-78
2020/12/10 09:37:45;;;;;;;72.80;43.87;;;;;;;;;;5032988;28;20191;-78
2020/12/10 09:40:11;;;;;;;47.83;26.07;;;;;;;;;;5033794;28;20169;-78
2020/12/10 09:42:43;;;;;;;34.13;19.40;;;;;;;;;;5033371;28;20528;-78
2020/12/10 09:45:09;;;;;;;60.63;34.57;;;;;;;;;;5033918;28;20192;-78
2020/12/10 09:47:36;;;;;;;29.10;14.77;;;;;;;;;;5033863;28;20168;-78
2020/12/10 09:50:02;;;;;;;86.47;43.43;;;;;;;;;;5019216;28;20188;-79
2020/12/10 09:52:29;;;;;;;75.67;34.87;;;;;;;;;;5013581;28;20687;-79
2020/12/10 09:59:53;;;;;;;49.83;26.03;;;;;;;;;;5013941;28;20229;-79
2020/12/10 10:02:19;;;;;;;55.07;28.90;;;;;;;;;;5013598;28;20170;-79
2020/12/10 10:04:44;;;;;;;59.13;35.73;;;;;;;;;;5013414;28;20203;-78
2020/12/10 10:07:10;;;;;;;40.33;20.67;;;;;;;;;;5014089;28;20180;-78
2020/12/10 10:09:37;;;;;;;52.10;29.27;;;;;;;;;;5013684;28;20640;-79
2020/12/10 10:12:04;;;;;;;56.10;28.03;;;;;;;;;;5015612;28;20251;-79
2020/12/10 10:14:30;;;;;;;48.87;25.63;;;;;;;;;;5017810;28;20180;-79
2020/12/10 10:16:55;;;;;;;46.73;24.80;;;;;;;;;;5017989;28;20526;-79
2020/12/10 10:19:21;;;;;;;87.77;50.53;;;;;;;;;;5017177;28;20169;-79
2020/12/10 10:21:46;;;;;;;39.80;19.23;;;;;;;;;;5017469;28;20639;-78
2020/12/10 10:24:13;;;;;;;47.53;25.03;;;;;;;;;;5017710;28;20200;-78
2020/12/10 10:26:44;;;;;;;44.10;20.70;;;;;;;;;;5017427;28;20180;-78
2020/12/10 10:29:28;;;;;;;46.20;23.83;;;;;;;;;;5015710;28;20197;-80
2020/12/10 10:31:53;;;;;;;51.17;25.60;;;;;;;;;;5017076;28;20169;-79
2020/12/10 10:34:19;;;;;;;54.60;29.00;;;;;;;;;;5016936;28;20176;-80
2020/12/10 10:36:44;;;;;;;47.13;25.97;;;;;;;;;;5015807;28;20189;-79
2020/12/10 10:39:10;;;;;;;35.37;17.97;;;;;;;;;;5017176;28;20161;-80
2020/12/10 10:41:43;;;;;;;53.03;28.57;;;;;;;;;;5017233;28;20173;-78
2020/12/10 10:44:10;;;;;;;56.93;27.97;;;;;;;;;;5020614;28;20204;-79
2020/12/10 10:46:36;;;;;;;101.40;45.30;;;;;;;;;;5035040;28;20199;-79
2020/12/10 10:49:20;;;;;;;45.80;22.33;;;;;;;;;;5035973;28;20619;-79
2020/12/10 10:51:49;;;;;;;48.43;23.77;;;;;;;;;;5060571;28;20177;-79
2020/12/10 10:54:15;;;;;;;41.93;21.27;;;;;;;;;;5056719;28;20173;-79
2020/12/10 10:56:40;;;;;;;39.70;19.23;;;;;;;;;;5036661;28;20179;-79
2020/12/10 10:59:05;;;;;;;40.87;18.93;;;;;;;;;;5036778;28;20255;-79
2020/12/10 11:01:31;;;;;;;47.53;24.73;;;;;;;;;;5035762;28;20233;-79
2020/12/10 11:03:58;;;;;;;53.17;27.07;;;;;;;;;;5036324;28;20218;-78
2020/12/10 11:06:26;;;;;;;45.33;24.47;;;;;;;;;;5035559;28;20184;-79
2020/12/10 11:08:52;;;;;;;48.00;24.10;;;;;;;;;;5035948;28;20193;-78
2020/12/10 11:11:32;;;;;;;47.40;23.43;;;;;;;;;;5036349;28;20169;-78
2020/12/10 11:13:58;;;;;;;43.70;22.90;;;;;;;;;;5035977;28;20189;-78
2020/12/10 11:16:23;;;;;;;53.87;27.90;;;;;;;;;;5036377;28;20188;-78
2020/12/10 11:18:52;;;;;;;46.40;23.83;;;;;;;;;;5036117;28;20169;-78
2020/12/10 11:21:17;;;;;;;56.07;25.73;;;;;;;;;;5035869;28;20181;-79
2020/12/10 11:23:43;;;;;;;60.83;32.10;;;;;;;;;;5035638;28;20248;-78
2020/12/10 11:26:12;;;;;;;51.40;26.83;;;;;;;;;;5035123;28;20168;-79
2020/12/10 11:28:57;;;;;;;51.87;26.27;;;;;;;;;;5035460;28;20667;-79
2020/12/10 11:31:22;;;;;;;37.83;18.70;;;;;;;;;;5035770;28;20171;-79
2020/12/10 11:33:47;;;;;;;61.83;29.83;;;;;;;;;;5035842;28;20635;-79
2020/12/10 11:36:27;;;;;;;57.33;26.77;;;;;;;;;;5033909;28;20173;-79
2020/12/10 11:38:53;;;;;;;55.47;22.73;;;;;;;;;;5033218;28;20210;-79
2020/12/10 11:41:19;;;;;;;56.17;25.83;;;;;;;;;;5034478;28;20192;-79
2020/12/10 11:43:45;;;;;;;47.70;25.87;;;;;;;;;;5035665;28;20191;-79
2020/12/10 11:46:10;;;;;;;47.90;23.70;;;;;;;;;;5035114;28;20534;-80
2020/12/10 11:48:55;;;;;;;77.93;37.50;;;;;;;;;;5034036;28;20207;-80
2020/12/10 11:51:23;;;;;;;55.47;23.70;;;;;;;;;;5034188;28;20169;-80
2020/12/10 11:53:55;;;;;;;51.90;26.07;;;;;;;;;;5032723;28;20652;-80
2020/12/10 11:56:21;;;;;;;50.03;26.30;;;;;;;;;;5032017;28;20211;-81
2020/12/10 11:58:46;;;;;;;41.03;21.67;;;;;;;;;;5033198;28;20224;-80
2020/12/10 12:01:12;;;;;;;50.00;24.57;;;;;;;;;;5033050;28;20177;-80
2020/12/10 12:03:37;;;;;;;45.93;21.13;;;;;;;;;;5033763;28;20202;-80
2020/12/10 12:06:23;;;;;;;54.53;28.77;;;;;;;;;;5031720;28;20652;-79
2020/12/10 12:08:49;;;;;;;54.77;27.67;;;;;;;;;;5033991;28;20172;-80
2020/12/10 12:11:23;;;;;;;59.53;30.47;;;;;;;;;;5035338;28;20204;-80
2020/12/10 12:13:49;;;;;;;71.83;34.07;;;;;;;;;;5032373;28;20195;-80
2020/12/10 12:16:14;;;;;;;53.23;29.17;;;;;;;;;;5032241;28;20196;-81
2020/12/10 12:18:39;;;;;;;77.50;34.63;;;;;;;;;;5033633;28;20172;-80
2020/12/10 12:21:06;;;;;;;44.77;23.30;;;;;;;;;;5033154;28;20238;-80
2020/12/10 12:23:40;;;;;;;42.77;23.33;;;;;;;;;;5033443;28;20176;-80
2020/12/10 12:26:06;;;;;;;42.77;20.30;;;;;;;;;;5032176;28;20572;-80
2020/12/10 12:31:34;;;;;;;45.83;23.43;;;;;;;;;;5030772;28;20186;-79
2020/12/10 12:34:00;;;;;;;46.00;24.20;;;;;;;;;;5029340;28;20311;-79
2020/12/10 12:36:25;;;;;;;50.40;25.87;;;;;;;;;;5033417;28;20267;-79
2020/12/10 12:38:51;;;;;;;60.10;34.20;;;;;;;;;;5032910;28;20259;-79
2020/12/10 12:41:16;;;;;;;76.27;37.77;;;;;;;;;;5033022;28;20168;-78
2020/12/10 12:43:41;;;;;;;56.87;31.47;;;;;;;;;;5033303;28;20582;-80
2020/12/10 12:46:07;;;;;;;44.80;24.87;;;;;;;;;;5033024;28;20815;-79
2020/12/10 12:48:32;;;;;;;50.40;26.83;;;;;;;;;;5031094;28;20184;-80
2020/12/10 12:50:58;;;;;;;56.60;31.40;;;;;;;;;;5032235;28;20185;-79
2020/12/10 12:53:23;;;;;;;58.77;30.63;;;;;;;;;;5032823;28;20262;-80
2020/12/10 12:55:49;;;;;;;133.60;62.93;;;;;;;;;;5043016;28;20157;-81
2020/12/10 12:58:17;;;;;;;63.73;33.27;;;;;;;;;;5057394;28;20248;-80
2020/12/10 13:01:02;;;;;;;58.80;32.33;;;;;;;;;;5052225;28;20259;-79
2020/12/10 13:03:27;;;;;;;95.37;47.93;;;;;;;;;;5033189;28;20203;-80
2020/12/10 13:05:54;;;;;;;57.67;34.93;;;;;;;;;;5033323;28;20670;-79
2020/12/10 13:08:19;;;;;;;67.60;37.70;;;;;;;;;;5032933;28;20246;-79
2020/12/10 13:10:45;;;;;;;50.77;27.40;;;;;;;;;;5032438;28;20180;-79
2020/12/10 13:13:10;;;;;;;50.50;26.47;;;;;;;;;;5032948;28;20184;-79
2020/12/10 13:15:37;;;;;;;65.30;35.17;;;;;;;;;;5032109;28;20207;-79
2020/12/10 13:18:03;;;;;;;62.73;32.40;;;;;;;;;;5031355;28;20192;-80
2020/12/10 13:20:29;;;;;;;60.30;32.83;;;;;;;;;;5032270;28;20256;-79
2020/12/10 13:22:55;;;;;;;54.60;26.20;;;;;;;;;;5032522;28;20181;-79
2020/12/10 13:25:23;;;;;;;90.20;48.73;;;;;;;;;;5032279;28;20208;-78
2020/12/10 13:27:49;;;;;;;48.93;27.10;;;;;;;;;;5032127;28;20169;-80
2020/12/10 13:30:14;;;;;;;70.20;34.63;;;;;;;;;;5032365;28;20211;-79
2020/12/10 13:32:39;;;;;;;56.70;30.87;;;;;;;;;;5032617;28;20175;-79
2020/12/10 13:35:28;;;;;;;45.53;25.63;;;;;;;;;;5031940;28;20176;-79
2020/12/10 13:37:53;;;;;;;55.00;28.73;;;;;;;;;;5032205;28;20195;-79
2020/12/10 13:40:38;;;;;;;50.47;29.43;;;;;;;;;;5032433;28;20199;-79
2020/12/10 13:43:04;;;;;;;39.10;22.00;;;;;;;;;;5031825;28;20172;-80
2020/12/10 13:45:32;;;;;;;42.70;24.03;;;;;;;;;;5032517;28;20529;-79
2020/12/10 13:47:58;;;;;;;38.73;23.50;;;;;;;;;;5034901;28;20188;-79
2020/12/10 13:50:25;;;;;;;47.17;27.87;;;;;;;;;;5036487;28;20168;-79
2020/12/10 13:52:51;;;;;;;50.63;24.90;;;;;;;;;;5034914;28;20188;-80
2020/12/10 13:55:18;;;;;;;52.07;29.57;;;;;;;;;;5035965;28;20515;-80
2020/12/10 13:57:46;;;;;;;44.43;24.87;;;;;;;;;;5036185;28;20217;-79
2020/12/10 14:00:17;;;;;;;68.63;39.60;;;;;;;;;;5036195;28;20172;-79
2020/12/10 14:02:44;;;;;;;42.97;22.33;;;;;;;;;;5023937;28;20528;-79
2020/12/10 14:05:09;;;;;;;49.37;25.17;;;;;;;;;;5016181;28;20216;-79
2020/12/10 14:07:37;;;;;;;47.10;23.63;;;;;;;;;;5016323;28;20181;-79
2020/12/10 14:10:03;;;;;;;45.77;27.77;;;;;;;;;;5016531;28;20185;-79
2020/12/10 14:12:30;;;;;;;35.97;20.73;;;;;;;;;;5015843;28;20169;-79
2020/12/10 14:14:58;;;;;;;60.23;29.27;;;;;;;;;;5016402;28;20679;-79
2020/12/10 14:17:32;;;;;;;76.13;40.20;;;;;;;;;;5016800;28;20189;-78
2020/12/10 14:19:58;;;;;;;48.10;27.17;;;;;;;;;;5017530;28;20169;-78
2020/12/10 14:22:23;;;;;;;49.77;28.43;;;;;;;;;;5017220;28;20526;-79
2020/12/10 14:24:48;;;;;;;42.80;24.60;;;;;;;;;;5026799;28;20644;-78